Valdosta/Moody AFB, Georgia
Current Conditions -  °F | °C
As of 3:42 PM on Saturday 20 Dec 2014 (Local Time) from KVAD Reporting Station
Overcast Overcast  
Wind Chill: 59°   Ceiling: 7000
Heat Index: 59°   Visibility: 10mi
Dew Point: 50°   Wind: 6mph
Humidity: 72%   Direction: 30°NNE
Pressure: 30.1"   Gusts: NA
Location:  30.96°N, 83.2°W
Report Text: KVAD 202042Z AUTO 03005KT 10SM BKN070 OVC090 15/10 A3010 RMK AO2
Loading
Personal Weather Stations






























Interactive Weather Map New forecast layout! Learn more

10-Day Weather Forecast

Advertisements
Track Severe Weather on mobile